createdAt,value
2023-05-20T00:00:46.610Z,25.50
2023-05-20T00:03:13.354Z,25.53
2023-05-20T00:05:40.391Z,25.49
2023-05-20T00:08:09.431Z,25.47
2023-05-20T00:10:36.353Z,25.47
2023-05-20T00:13:02.948Z,25.48
2023-05-20T00:15:29.606Z,25.48
2023-05-20T00:17:56.596Z,25.44
2023-05-20T00:20:23.301Z,25.51
2023-05-20T00:22:50.002Z,25.46
2023-05-20T00:25:16.816Z,25.46
2023-05-20T00:27:43.531Z,25.50
2023-05-20T00:30:10.853Z,25.45
2023-05-20T00:32:37.714Z,25.48
2023-05-20T00:35:04.740Z,25.46
2023-05-20T00:37:31.427Z,25.44
2023-05-20T00:39:58.021Z,25.46
2023-05-20T00:42:25.472Z,25.44
2023-05-20T00:44:52.391Z,25.39
2023-05-20T00:47:20.103Z,25.44
2023-05-20T00:49:48.892Z,25.39
2023-05-20T00:52:18.888Z,25.40
2023-05-20T00:54:45.816Z,25.42
2023-05-20T00:57:12.579Z,25.38
2023-05-20T00:59:39.294Z,25.39
2023-05-20T01:02:06.080Z,25.42
2023-05-20T01:04:33.003Z,25.40
2023-05-20T01:07:01.003Z,25.41
2023-05-20T01:09:27.896Z,25.35
2023-05-20T01:12:06.903Z,25.42
2023-05-20T01:14:36.641Z,25.41
2023-05-20T01:17:10.819Z,25.38
2023-05-20T01:19:46.630Z,25.42
2023-05-20T01:22:13.823Z,25.31
2023-05-20T01:24:53.398Z,25.38
2023-05-20T01:27:20.710Z,25.37
2023-05-20T01:29:50.632Z,25.41
2023-05-20T01:32:24.887Z,25.40
2023-05-20T01:34:52.317Z,25.36
2023-05-20T01:37:22.085Z,25.37
2023-05-20T01:39:49.800Z,25.30
2023-05-20T01:42:16.507Z,25.35
2023-05-20T01:44:43.536Z,25.29
2023-05-20T01:47:10.141Z,25.32
2023-05-20T01:49:36.808Z,25.29
2023-05-20T01:52:04.534Z,25.34
2023-05-20T01:54:31.292Z,25.30
2023-05-20T01:56:58.467Z,25.31
2023-05-20T01:59:25.346Z,25.32
2023-05-20T02:01:52.043Z,25.30
2023-05-20T02:04:19.752Z,25.35
2023-05-20T02:06:46.359Z,25.31
2023-05-20T02:09:12.950Z,25.32
2023-05-20T02:11:39.580Z,25.31
2023-05-20T02:14:06.360Z,25.30
2023-05-20T02:16:33.120Z,25.26
2023-05-20T02:18:59.847Z,25.28
2023-05-20T02:21:26.604Z,25.30
2023-05-20T02:23:53.822Z,25.30
2023-05-20T02:26:20.776Z,25.29
2023-05-20T02:28:50.705Z,25.28
2023-05-20T02:31:17.932Z,25.25
2023-05-20T02:33:45.290Z,25.24
2023-05-20T02:36:12.433Z,25.25
2023-05-20T02:38:38.979Z,25.26
2023-05-20T02:41:05.602Z,25.28
2023-05-20T02:43:33.127Z,25.29
2023-05-20T02:46:01.238Z,25.24
2023-05-20T02:48:27.930Z,25.22
2023-05-20T02:50:54.649Z,25.25
2023-05-20T02:53:21.333Z,25.25
2023-05-20T02:55:48.941Z,25.24
2023-05-20T02:58:15.698Z,25.23
2023-05-20T03:00:43.470Z,25.24
2023-05-20T03:03:10.638Z,25.23
2023-05-20T03:05:37.838Z,25.20
2023-05-20T03:08:10.841Z,25.22
2023-05-20T03:10:40.641Z,25.20
2023-05-20T03:13:11.468Z,25.23
2023-05-20T03:15:38.852Z,25.10
2023-05-20T03:18:06.123Z,25.22
2023-05-20T03:20:32.802Z,25.20
2023-05-20T03:22:59.469Z,25.13
2023-05-20T03:25:26.358Z,25.19
2023-05-20T03:27:53.022Z,25.19
2023-05-20T03:30:19.928Z,25.20
2023-05-20T03:32:48.194Z,25.20
2023-05-20T03:35:15.084Z,25.23
2023-05-20T03:37:41.703Z,25.25
2023-05-20T03:40:11.585Z,25.20
2023-05-20T03:42:39.650Z,25.13
2023-05-20T03:45:07.490Z,25.22
2023-05-20T03:47:40.713Z,25.22
2023-05-20T03:50:07.830Z,25.11
2023-05-20T03:52:36.006Z,25.20
2023-05-20T03:55:02.828Z,25.16
2023-05-20T03:57:30.319Z,25.18
2023-05-20T03:59:56.880Z,25.19
2023-05-20T04:02:24.002Z,25.19
2023-05-20T04:04:52.834Z,25.22
2023-05-20T04:07:19.519Z,25.19
2023-05-20T04:09:46.749Z,25.12
2023-05-20T04:12:13.980Z,25.16
2023-05-20T04:14:42.135Z,25.13
2023-05-20T04:17:09.622Z,25.08
2023-05-20T04:19:38.207Z,25.15
2023-05-20T04:22:04.915Z,25.08
2023-05-20T04:24:31.548Z,25.12
2023-05-20T04:26:58.172Z,25.14
2023-05-20T04:29:28.492Z,25.10
2023-05-20T04:31:58.690Z,25.13
2023-05-20T04:34:27.054Z,25.13
2023-05-20T04:36:54.143Z,25.10
2023-05-20T04:39:20.886Z,25.08
2023-05-20T04:41:51.977Z,25.10
2023-05-20T04:44:18.568Z,25.09
2023-05-20T04:46:46.096Z,25.10
2023-05-20T04:49:15.476Z,25.11
2023-05-20T04:51:43.824Z,25.11
2023-05-20T04:54:11.932Z,25.06
2023-05-20T04:56:38.595Z,25.07
2023-05-20T04:59:05.201Z,25.04
2023-05-20T05:01:31.855Z,25.07
2023-05-20T05:03:58.539Z,25.08
2023-05-20T05:06:25.217Z,25.07
2023-05-20T05:08:51.851Z,25.07
2023-05-20T05:11:18.711Z,25.08
2023-05-20T05:13:46.119Z,25.09
2023-05-20T05:16:13.786Z,25.06
2023-05-20T05:18:40.477Z,25.08
2023-05-20T05:21:07.153Z,24.93
2023-05-20T05:23:35.496Z,25.05
2023-05-20T05:26:02.177Z,25.06
2023-05-20T05:28:28.853Z,25.04
2023-05-20T05:30:56.486Z,25.11
2023-05-20T05:33:23.141Z,24.85
2023-05-20T05:35:49.992Z,24.56
2023-05-20T05:38:16.996Z,24.43
2023-05-20T05:40:43.591Z,24.37
2023-05-20T05:43:11.108Z,24.41
2023-05-20T05:45:38.735Z,24.47
2023-05-20T05:48:05.606Z,24.54
2023-05-20T05:50:32.497Z,24.55
2023-05-20T05:52:59.226Z,24.60
2023-05-20T05:55:26.098Z,24.60
2023-05-20T05:57:54.091Z,24.59
2023-05-20T06:00:22.141Z,24.67
2023-05-20T06:02:49.361Z,24.71
2023-05-20T06:05:30.674Z,24.73
2023-05-20T06:07:57.755Z,24.73
2023-05-20T06:10:25.486Z,24.70
2023-05-20T06:12:52.127Z,24.76
2023-05-20T06:15:18.862Z,24.71
2023-05-20T06:17:45.801Z,24.76
2023-05-20T06:20:13.534Z,24.71
2023-05-20T06:22:40.288Z,24.74
2023-05-20T06:25:07.785Z,24.79
2023-05-20T06:27:36.139Z,24.80
2023-05-20T06:30:03.978Z,24.80
2023-05-20T06:32:30.821Z,24.80
2023-05-20T06:34:58.336Z,24.85
2023-05-20T06:37:25.022Z,24.89
2023-05-20T06:39:53.815Z,24.89
2023-05-20T06:42:23.868Z,24.89
2023-05-20T06:45:02.967Z,24.80
2023-05-20T06:47:40.906Z,24.86
2023-05-20T06:50:09.136Z,24.78
2023-05-20T06:52:36.396Z,24.84
2023-05-20T06:55:04.430Z,24.79
2023-05-20T06:57:31.259Z,24.84
2023-05-20T06:59:58.659Z,24.83
2023-05-20T07:02:25.555Z,24.86
2023-05-20T07:04:53.362Z,24.89
2023-05-20T07:07:20.009Z,24.86
2023-05-20T07:09:46.929Z,24.95
2023-05-20T07:12:13.660Z,24.93
2023-05-20T07:14:40.273Z,24.92
2023-05-20T07:17:07.075Z,24.98
2023-05-20T07:19:33.931Z,24.96
2023-05-20T07:22:00.846Z,24.98
2023-05-20T07:24:36.573Z,24.96
2023-05-20T07:27:04.685Z,24.99
2023-05-20T07:29:31.325Z,24.99
2023-05-20T07:31:58.403Z,25.03
2023-05-20T07:34:25.140Z,25.06
2023-05-20T07:36:53.482Z,25.06
2023-05-20T07:39:20.129Z,25.05
2023-05-20T07:41:47.010Z,25.02
2023-05-20T07:44:13.701Z,24.97
2023-05-20T07:46:44.306Z,24.90
2023-05-20T07:49:11.689Z,25.08
2023-05-20T07:51:39.375Z,25.00
2023-05-20T07:54:06.377Z,25.07
2023-05-20T07:56:33.353Z,25.13
2023-05-20T07:59:00.632Z,25.07
2023-05-20T08:01:34.486Z,25.08
2023-05-20T08:04:03.912Z,25.12
2023-05-20T08:06:31.762Z,25.12
2023-05-20T08:08:58.691Z,25.16
2023-05-20T08:11:33.048Z,25.20
2023-05-20T08:14:00.368Z,25.22
2023-05-20T08:16:29.852Z,25.23
2023-05-20T08:18:56.880Z,25.24
2023-05-20T08:21:26.776Z,25.25
2023-05-20T08:23:53.550Z,25.26
2023-05-20T08:26:20.316Z,25.24
2023-05-20T08:28:49.630Z,25.23
2023-05-20T08:31:18.094Z,25.23
2023-05-20T08:33:45.251Z,25.27
2023-05-20T08:36:11.992Z,25.24
2023-05-20T08:38:38.837Z,25.25
2023-05-20T08:41:06.802Z,25.20
2023-05-20T08:43:34.852Z,25.26
2023-05-20T08:46:03.619Z,25.24
2023-05-20T08:48:32.009Z,25.25
2023-05-20T08:50:59.224Z,25.24
2023-05-20T08:53:25.856Z,25.23
2023-05-20T08:56:00.932Z,25.26
2023-05-20T08:58:31.385Z,25.26
2023-05-20T09:00:58.870Z,25.24
2023-05-20T09:03:25.807Z,25.25
2023-05-20T09:06:03.988Z,25.26
2023-05-20T09:08:30.820Z,25.23
2023-05-20T09:11:00.696Z,25.31
2023-05-20T09:13:27.749Z,25.28
2023-05-20T09:15:54.427Z,25.29
2023-05-20T09:18:21.482Z,25.35
2023-05-20T09:20:50.820Z,25.37
2023-05-20T09:23:19.134Z,25.38
2023-05-20T09:25:54.666Z,25.27
2023-05-20T09:28:26.721Z,25.38
2023-05-20T09:30:59.940Z,25.39
2023-05-20T09:33:30.350Z,25.45
2023-05-20T09:36:09.793Z,25.43
2023-05-20T09:38:40.148Z,25.46
2023-05-20T09:41:08.776Z,25.47
2023-05-20T09:43:36.397Z,25.46
2023-05-20T09:46:04.322Z,25.45
2023-05-20T09:48:34.181Z,25.43
2023-05-20T09:51:01.130Z,25.49
2023-05-20T09:53:28.316Z,25.46
2023-05-20T09:55:55.131Z,25.51
2023-05-20T09:58:22.867Z,25.44
2023-05-20T10:00:49.861Z,25.50
2023-05-20T10:03:17.215Z,25.52
2023-05-20T10:05:47.556Z,25.52
2023-05-20T10:08:29.296Z,25.59
2023-05-20T10:11:14.846Z,25.65
2023-05-20T10:14:02.529Z,25.66
2023-05-20T10:16:51.848Z,25.66
2023-05-20T10:19:21.586Z,25.63
2023-05-20T10:22:01.702Z,25.68
2023-05-20T10:24:35.193Z,25.68
2023-05-20T10:27:03.289Z,25.67
2023-05-20T10:29:30.004Z,25.72
2023-05-20T10:31:56.851Z,25.59
2023-05-20T10:34:23.600Z,25.72
2023-05-20T10:36:56.178Z,25.77
2023-05-20T10:39:29.400Z,25.73
2023-05-20T10:42:08.797Z,25.78
2023-05-20T10:44:41.588Z,25.76
2023-05-20T10:47:24.760Z,25.67
2023-05-20T10:49:52.771Z,25.80
2023-05-20T10:52:19.565Z,25.77
2023-05-20T10:54:59.198Z,25.82
2023-05-20T10:57:29.173Z,25.85
2023-05-20T10:59:55.996Z,25.84
2023-05-20T11:02:28.978Z,25.81
2023-05-20T11:04:58.813Z,25.87
2023-05-20T11:07:29.267Z,25.89
2023-05-20T11:09:56.666Z,25.87
2023-05-20T11:12:26.910Z,25.87
2023-05-20T11:14:53.661Z,25.85
2023-05-20T11:17:20.496Z,25.83
2023-05-20T11:19:47.456Z,25.90
2023-05-20T11:22:14.106Z,25.85
2023-05-20T11:24:40.975Z,25.94
2023-05-20T11:27:07.928Z,25.95
2023-05-20T11:29:35.175Z,25.98
2023-05-20T11:32:01.962Z,25.98
2023-05-20T11:34:39.617Z,25.99
2023-05-20T11:37:09.973Z,26.05
2023-05-20T11:39:37.319Z,26.10
2023-05-20T11:42:05.972Z,26.12
2023-05-20T11:44:32.617Z,26.17
2023-05-20T11:47:01.028Z,26.22
2023-05-20T11:49:28.077Z,26.27
2023-05-20T11:51:54.747Z,26.31
2023-05-20T11:54:22.455Z,26.35
2023-05-20T11:56:49.090Z,26.37
2023-05-20T11:59:15.951Z,26.38
2023-05-20T12:01:43.346Z,26.42
2023-05-20T12:04:10.336Z,26.41
2023-05-20T12:06:37.399Z,26.44
2023-05-20T12:09:08.869Z,26.46
2023-05-20T12:11:41.009Z,26.49
2023-05-20T12:14:08.252Z,26.48
2023-05-20T12:16:35.493Z,26.52
2023-05-20T12:19:02.363Z,26.46
2023-05-20T12:21:29.310Z,26.55
2023-05-20T12:23:59.714Z,26.56
2023-05-20T12:26:27.914Z,26.49
2023-05-20T12:28:55.246Z,26.52
2023-05-20T12:31:22.019Z,26.53
2023-05-20T12:33:48.706Z,26.49
2023-05-20T12:36:15.422Z,26.51
2023-05-20T12:38:42.139Z,26.50
2023-05-20T12:41:08.975Z,26.44
2023-05-20T12:43:37.081Z,26.39
2023-05-20T12:46:04.072Z,26.50
2023-05-20T12:48:30.879Z,26.53
2023-05-20T12:50:57.507Z,26.48
2023-05-20T12:53:24.176Z,26.46
2023-05-20T12:55:53.927Z,26.49
2023-05-20T12:58:21.065Z,26.51
2023-05-20T13:00:47.759Z,26.50
2023-05-20T13:03:14.864Z,26.51
2023-05-20T13:05:41.866Z,26.50
2023-05-20T13:08:10.155Z,26.47
2023-05-20T13:10:37.283Z,26.53
2023-05-20T13:13:04.892Z,26.54
2023-05-20T13:15:33.256Z,26.50
2023-05-20T13:18:01.476Z,26.40
2023-05-20T13:20:29.845Z,26.50
2023-05-20T13:22:56.570Z,26.49
2023-05-20T13:25:23.332Z,26.47
2023-05-20T13:27:50.047Z,26.48
2023-05-20T13:30:16.680Z,26.44
2023-05-20T13:32:43.363Z,26.50
2023-05-20T13:35:10.583Z,26.50
2023-05-20T13:37:37.299Z,26.51
2023-05-20T13:40:04.107Z,26.51
2023-05-20T13:42:31.178Z,26.53
2023-05-20T13:44:57.873Z,26.51
2023-05-20T13:47:24.504Z,26.40
2023-05-20T13:49:51.142Z,26.48
2023-05-20T13:52:17.782Z,26.47
2023-05-20T13:54:46.742Z,26.49
2023-05-20T13:57:13.457Z,26.52
2023-05-20T13:59:40.051Z,26.50
2023-05-20T14:02:07.477Z,26.52
2023-05-20T14:04:39.475Z,26.49
2023-05-20T14:07:09.062Z,26.51
2023-05-20T14:09:36.429Z,26.49
2023-05-20T14:12:03.146Z,26.53
2023-05-20T14:14:29.845Z,26.52
2023-05-20T14:16:56.436Z,26.53
2023-05-20T14:19:23.231Z,26.50
2023-05-20T14:21:49.908Z,26.49
2023-05-20T14:24:16.536Z,26.47
2023-05-20T14:26:43.200Z,26.41
2023-05-20T14:29:10.330Z,26.50
2023-05-20T14:31:39.318Z,26.53
2023-05-20T14:34:06.080Z,26.50
2023-05-20T14:36:32.695Z,26.55
2023-05-20T14:38:59.310Z,26.53
2023-05-20T14:41:26.020Z,26.52
2023-05-20T14:43:52.713Z,26.51
2023-05-20T14:46:19.357Z,26.54
2023-05-20T14:48:46.012Z,26.52
2023-05-20T14:51:12.629Z,26.50
2023-05-20T14:53:39.259Z,26.50
2023-05-20T14:56:05.931Z,26.53
2023-05-20T14:58:32.951Z,26.51
2023-05-20T15:00:59.894Z,26.47
2023-05-20T15:03:28.029Z,26.50
2023-05-20T15:05:54.744Z,26.51
2023-05-20T15:08:21.556Z,26.50
2023-05-20T15:10:48.213Z,26.50
2023-05-20T15:13:14.964Z,26.52
2023-05-20T15:15:41.647Z,26.54
2023-05-20T15:18:08.303Z,26.55
2023-05-20T15:20:35.085Z,26.54
2023-05-20T15:23:01.734Z,26.55
2023-05-20T15:25:28.347Z,26.51
2023-05-20T15:27:55.054Z,26.52
2023-05-20T15:30:22.825Z,26.51
2023-05-20T15:32:49.735Z,26.37
2023-05-20T15:35:19.321Z,26.49
2023-05-20T15:37:45.928Z,26.47
2023-05-20T15:40:12.693Z,26.46
2023-05-20T15:42:39.385Z,26.47
2023-05-20T15:45:07.189Z,26.44
2023-05-20T15:47:33.840Z,26.45
2023-05-20T15:50:02.454Z,26.52
2023-05-20T15:52:29.310Z,26.50
2023-05-20T15:54:56.673Z,26.46
2023-05-20T15:57:23.782Z,26.47
2023-05-20T15:59:50.999Z,26.42
2023-05-20T16:02:18.053Z,26.43
2023-05-20T16:04:44.845Z,26.46
2023-05-20T16:07:11.920Z,26.44
2023-05-20T16:09:39.046Z,26.43
2023-05-20T16:12:09.545Z,26.44
2023-05-20T16:14:36.442Z,26.41
2023-05-20T16:17:03.085Z,26.30
2023-05-20T16:19:29.834Z,26.28
2023-05-20T16:21:56.592Z,26.39
2023-05-20T16:24:23.284Z,26.32
2023-05-20T16:26:50.254Z,26.43
2023-05-20T16:29:17.192Z,26.42
2023-05-20T16:31:46.814Z,26.43
2023-05-20T16:34:14.812Z,26.41
2023-05-20T16:36:41.514Z,26.44
2023-05-20T16:39:08.221Z,26.41
2023-05-20T16:41:34.877Z,26.29
2023-05-20T16:44:01.501Z,26.42
2023-05-20T16:46:28.222Z,26.45
2023-05-20T16:48:55.010Z,26.42
2023-05-20T16:51:21.923Z,26.41
2023-05-20T16:53:48.601Z,26.47
2023-05-20T16:56:15.593Z,26.45
2023-05-20T16:58:42.201Z,26.43
2023-05-20T17:01:08.832Z,26.42
2023-05-20T17:03:35.655Z,26.43
2023-05-20T17:06:02.706Z,26.44
2023-05-20T17:08:29.808Z,26.45
2023-05-20T17:10:57.321Z,26.43
2023-05-20T17:13:24.027Z,26.41
2023-05-20T17:15:51.033Z,26.44
2023-05-20T17:18:17.759Z,26.42
2023-05-20T17:20:45.217Z,26.39
2023-05-20T17:23:12.036Z,26.40
2023-05-20T17:25:38.723Z,26.41
2023-05-20T17:28:05.449Z,26.38
2023-05-20T17:30:32.260Z,26.35
2023-05-20T17:32:59.055Z,26.33
2023-05-20T17:35:26.120Z,26.31
2023-05-20T17:37:53.507Z,26.38
2023-05-20T17:40:20.547Z,26.34
2023-05-20T17:42:50.522Z,26.35
2023-05-20T17:45:17.154Z,26.30
2023-05-20T17:47:43.787Z,26.30
2023-05-20T17:50:10.888Z,26.29
2023-05-20T17:52:37.698Z,26.28
2023-05-20T17:55:04.783Z,26.28
2023-05-20T17:57:31.574Z,26.30
2023-05-20T17:59:58.206Z,26.31
2023-05-20T18:02:24.939Z,26.31
2023-05-20T18:04:51.619Z,26.31
2023-05-20T18:07:18.291Z,26.34
2023-05-20T18:09:45.026Z,26.33
2023-05-20T18:12:14.465Z,26.25
2023-05-20T18:14:41.372Z,26.36
2023-05-20T18:17:08.128Z,26.31
2023-05-20T18:19:34.896Z,26.30
2023-05-20T18:22:02.734Z,26.29
2023-05-20T18:24:32.249Z,26.29
2023-05-20T18:26:58.898Z,26.25
2023-05-20T18:29:26.994Z,26.27
2023-05-20T18:31:53.808Z,26.27
2023-05-20T18:34:20.792Z,26.30
2023-05-20T18:36:47.694Z,26.28
